createdAt,value
2023-05-07T00:15:02.440Z,32.56
2023-05-07T00:45:04.853Z,34.08
2023-05-07T01:15:07.359Z,35.24
2023-05-07T01:45:09.836Z,34.23
2023-05-07T02:15:12.298Z,31.99
2023-05-07T02:45:14.886Z,31.53
2023-05-07T03:15:17.456Z,30.17
2023-05-07T03:47:36.156Z,30.35
2023-05-07T04:17:38.596Z,32.19
2023-05-07T04:47:41.040Z,36.23
2023-05-07T05:17:43.839Z,37.78
2023-05-07T05:47:46.721Z,33.45
2023-05-07T06:17:49.597Z,25.44
2023-05-07T06:47:52.785Z,22.41
2023-05-07T07:17:57.622Z,14.96
2023-05-07T07:48:00.411Z,9.53
2023-05-07T08:41:21.176Z,5.93
2023-05-07T09:11:23.681Z,9.81
2023-05-07T09:41:26.188Z,13.14
2023-05-07T10:11:28.785Z,14.04
2023-05-07T10:41:31.412Z,15.46
2023-05-07T11:11:35.625Z,16.77
2023-05-07T11:41:36.550Z,16.26
2023-05-07T12:11:39.058Z,16.69
2023-05-07T12:41:41.600Z,16.75
2023-05-07T13:11:44.038Z,15.66
2023-05-07T13:41:46.556Z,13.80
2023-05-07T14:11:49.212Z,14.49
2023-05-07T14:41:51.907Z,13.49
2023-05-07T15:11:54.241Z,11.94
2023-05-07T15:48:37.656Z,9.40
2023-05-07T16:18:40.073Z,8.73
2023-05-07T17:02:35.497Z,7.00
2023-05-07T17:32:37.790Z,5.80
2023-05-07T18:02:38.106Z,6.34
2023-05-07T18:32:40.476Z,7.42
2023-05-07T19:02:42.930Z,8.91
2023-05-07T19:32:45.463Z,8.29
2023-05-07T20:02:48.087Z,7.12
2023-05-07T20:32:50.961Z,6.36
2023-05-07T21:02:53.792Z,6.74
2023-05-07T21:32:57.487Z,6.52
2023-05-07T22:03:00.869Z,7.45
2023-05-07T22:33:03.473Z,8.54
2023-05-07T23:03:06.335Z,9.81
2023-05-07T23:33:08.966Z,10.83
